sensor_id;sensor_type;location;lat;lon;timestamp;pressure;altitude;pressure_sealevel;temperature;humidity
79527;BME280;68974;47.754;-3.364;2023-04-15T00:00:21;101407.47;;;8.26;73.60
79527;BME280;68974;47.754;-3.364;2023-04-15T00:02:46;101421.41;;;8.24;73.70
79527;BME280;68974;47.754;-3.364;2023-04-15T00:05:12;101428.94;;;8.17;73.84
79527;BME280;68974;47.754;-3.364;2023-04-15T00:07:37;101425.06;;;8.13;74.07
79527;BME280;68974;47.754;-3.364;2023-04-15T00:10:04;101434.75;;;8.21;74.02
79527;BME280;68974;47.754;-3.364;2023-04-15T00:12:30;101426.31;;;8.06;73.54
79527;BME280;68974;47.754;-3.364;2023-04-15T00:14:56;101437.25;;;8.06;74.51
79527;BME280;68974;47.754;-3.364;2023-04-15T00:17:23;101444.34;;;8.07;74.08
79527;BME280;68974;47.754;-3.364;2023-04-15T00:19:48;101444.88;;;8.04;74.56
79527;BME280;68974;47.754;-3.364;2023-04-15T00:22:14;101454.31;;;7.96;74.70
79527;BME280;68974;47.754;-3.364;2023-04-15T00:24:39;101455.53;;;7.89;75.00
79527;BME280;68974;47.754;-3.364;2023-04-15T00:27:04;101465.41;;;7.90;74.65
79527;BME280;68974;47.754;-3.364;2023-04-15T00:29:30;101459.25;;;7.82;75.18
79527;BME280;68974;47.754;-3.364;2023-04-15T00:31:56;101456.03;;;7.86;74.78
79527;BME280;68974;47.754;-3.364;2023-04-15T00:34:22;101463.53;;;7.78;75.07
79527;BME280;68974;47.754;-3.364;2023-04-15T00:36:47;101463.34;;;7.68;75.14
79527;BME280;68974;47.754;-3.364;2023-04-15T00:39:13;101468.81;;;7.68;75.76
79527;BME280;68974;47.754;-3.364;2023-04-15T00:41:40;101468.16;;;7.61;75.99
79527;BME280;68974;47.754;-3.364;2023-04-15T00:44:06;101472.63;;;7.67;75.84
79527;BME280;68974;47.754;-3.364;2023-04-15T00:46:32;101480.25;;;7.65;75.47
79527;BME280;68974;47.754;-3.364;2023-04-15T00:48:59;101467.66;;;7.64;75.73
79527;BME280;68974;47.754;-3.364;2023-04-15T00:51:25;101475.13;;;7.69;75.96
79527;BME280;68974;47.754;-3.364;2023-04-15T00:53:51;101486.69;;;7.59;75.57
79527;BME280;68974;47.754;-3.364;2023-04-15T00:56:17;101486.13;;;7.57;76.01
79527;BME280;68974;47.754;-3.364;2023-04-15T00:58:44;101485.31;;;7.73;74.80
79527;BME280;68974;47.754;-3.364;2023-04-15T01:01:09;101490.50;;;7.58;75.69
79527;BME280;68974;47.754;-3.364;2023-04-15T01:03:35;101487.81;;;7.47;75.99
79527;BME280;68974;47.754;-3.364;2023-04-15T01:06:00;101493.41;;;7.40;76.02
79527;BME280;68974;47.754;-3.364;2023-04-15T01:08:27;101487.34;;;7.38;76.77
79527;BME280;68974;47.754;-3.364;2023-04-15T01:10:55;101491.41;;;7.35;76.60
79527;BME280;68974;47.754;-3.364;2023-04-15T01:13:22;101495.19;;;7.34;77.11
79527;BME280;68974;47.754;-3.364;2023-04-15T01:15:48;101499.16;;;7.27;76.98
79527;BME280;68974;47.754;-3.364;2023-04-15T01:18:14;101503.16;;;7.36;76.50
79527;BME280;68974;47.754;-3.364;2023-04-15T01:20:39;101509.91;;;7.45;76.51
79527;BME280;68974;47.754;-3.364;2023-04-15T01:23:05;101511.94;;;7.38;76.45
79527;BME280;68974;47.754;-3.364;2023-04-15T01:25:32;101514.09;;;7.36;77.01
79527;BME280;68974;47.754;-3.364;2023-04-15T01:27:58;101518.50;;;7.37;76.70
79527;BME280;68974;47.754;-3.364;2023-04-15T01:30:25;101523.47;;;7.40;76.88
79527;BME280;68974;47.754;-3.364;2023-04-15T01:32:51;101527.88;;;7.41;76.84
79527;BME280;68974;47.754;-3.364;2023-04-15T01:35:17;101520.75;;;7.40;76.21
79527;BME280;68974;47.754;-3.364;2023-04-15T01:37:42;101524.81;;;7.37;76.43
79527;BME280;68974;47.754;-3.364;2023-04-15T01:40:08;101531.00;;;7.33;77.01
79527;BME280;68974;47.754;-3.364;2023-04-15T01:42:35;101527.28;;;7.39;76.48
79527;BME280;68974;47.754;-3.364;2023-04-15T01:45:01;101547.50;;;7.26;77.41
79527;BME280;68974;47.754;-3.364;2023-04-15T01:47:27;101546.69;;;7.26;77.35
79527;BME280;68974;47.754;-3.364;2023-04-15T01:49:52;101535.25;;;7.29;77.48
79527;BME280;68974;47.754;-3.364;2023-04-15T01:52:18;101539.16;;;7.45;76.89
79527;BME280;68974;47.754;-3.364;2023-04-15T01:54:43;101538.94;;;7.34;77.21
79527;BME280;68974;47.754;-3.364;2023-04-15T01:57:09;101538.47;;;7.37;77.10
79527;BME280;68974;47.754;-3.364;2023-04-15T01:59:34;101549.53;;;7.31;77.36
79527;BME280;68974;47.754;-3.364;2023-04-15T02:02:00;101550.13;;;7.33;77.58
79527;BME280;68974;47.754;-3.364;2023-04-15T02:04:26;101559.97;;;7.34;77.08
79527;BME280;68974;47.754;-3.364;2023-04-15T02:06:52;101557.59;;;7.37;77.08
79527;BME280;68974;47.754;-3.364;2023-04-15T02:09:17;101554.38;;;7.52;77.41
79527;BME280;68974;47.754;-3.364;2023-04-15T02:11:43;101560.69;;;7.41;77.16
79527;BME280;68974;47.754;-3.364;2023-04-15T02:14:09;101569.94;;;7.40;76.99
79527;BME280;68974;47.754;-3.364;2023-04-15T02:16:34;101573.75;;;7.39;77.37
79527;BME280;68974;47.754;-3.364;2023-04-15T02:19:00;101572.78;;;7.45;77.10
79527;BME280;68974;47.754;-3.364;2023-04-15T02:21:26;101573.75;;;7.39;76.87
79527;BME280;68974;47.754;-3.364;2023-04-15T02:23:51;101580.75;;;7.47;76.82
79527;BME280;68974;47.754;-3.364;2023-04-15T02:26:18;101588.13;;;7.46;76.97
79527;BME280;68974;47.754;-3.364;2023-04-15T02:28:45;101595.16;;;7.42;77.05
79527;BME280;68974;47.754;-3.364;2023-04-15T02:31:11;101596.69;;;7.50;76.73
79527;BME280;68974;47.754;-3.364;2023-04-15T02:33:36;101602.25;;;7.43;77.11
79527;BME280;68974;47.754;-3.364;2023-04-15T02:36:02;101606.09;;;7.42;77.09
79527;BME280;68974;47.754;-3.364;2023-04-15T02:38:27;101598.69;;;7.54;76.80
79527;BME280;68974;47.754;-3.364;2023-04-15T02:40:53;101597.16;;;7.47;76.63
79527;BME280;68974;47.754;-3.364;2023-04-15T02:43:18;101601.06;;;7.39;77.16
79527;BME280;68974;47.754;-3.364;2023-04-15T02:45:45;101598.47;;;7.44;76.68
79527;BME280;68974;47.754;-3.364;2023-04-15T02:48:11;101598.72;;;7.31;76.98
79527;BME280;68974;47.754;-3.364;2023-04-15T02:50:36;101603.13;;;7.32;77.76
79527;BME280;68974;47.754;-3.364;2023-04-15T02:53:03;101599.56;;;7.31;77.46
79527;BME280;68974;47.754;-3.364;2023-04-15T02:55:30;101597.53;;;7.27;77.48
79527;BME280;68974;47.754;-3.364;2023-04-15T02:57:55;101612.59;;;7.29;77.52
79527;BME280;68974;47.754;-3.364;2023-04-15T03:00:22;101620.81;;;7.41;76.41
79527;BME280;68974;47.754;-3.364;2023-04-15T03:02:49;101613.44;;;7.42;76.73
79527;BME280;68974;47.754;-3.364;2023-04-15T03:05:20;101619.88;;;7.47;76.89
79527;BME280;68974;47.754;-3.364;2023-04-15T03:07:49;101623.66;;;7.46;76.22
79527;BME280;68974;47.754;-3.364;2023-04-15T03:10:14;101621.19;;;7.33;77.32
79527;BME280;68974;47.754;-3.364;2023-04-15T03:12:39;101632.69;;;7.35;77.26
79527;BME280;68974;47.754;-3.364;2023-04-15T03:15:06;101634.84;;;7.33;77.53
79527;BME280;68974;47.754;-3.364;2023-04-15T03:17:32;101645.78;;;7.33;77.79
79527;BME280;68974;47.754;-3.364;2023-04-15T03:19:57;101646.25;;;7.30;77.20
79527;BME280;68974;47.754;-3.364;2023-04-15T03:22:23;101643.50;;;7.30;77.87
79527;BME280;68974;47.754;-3.364;2023-04-15T03:24:49;101642.94;;;7.28;77.95
79527;BME280;68974;47.754;-3.364;2023-04-15T03:27:14;101646.25;;;7.30;78.09
79527;BME280;68974;47.754;-3.364;2023-04-15T03:29:40;101642.78;;;7.34;77.30
79527;BME280;68974;47.754;-3.364;2023-04-15T03:32:05;101642.44;;;7.54;77.39
79527;BME280;68974;47.754;-3.364;2023-04-15T03:34:30;101644.34;;;7.42;77.60
79527;BME280;68974;47.754;-3.364;2023-04-15T03:36:56;101652.88;;;7.34;78.21
79527;BME280;68974;47.754;-3.364;2023-04-15T03:39:22;101654.06;;;7.38;77.20
79527;BME280;68974;47.754;-3.364;2023-04-15T03:41:47;101653.38;;;7.31;77.68
79527;BME280;68974;47.754;-3.364;2023-04-15T03:44:12;101651.72;;;7.30;78.36
79527;BME280;68974;47.754;-3.364;2023-04-15T03:46:38;101645.19;;;7.31;78.50
79527;BME280;68974;47.754;-3.364;2023-04-15T03:49:06;101662.63;;;7.30;78.67
79527;BME280;68974;47.754;-3.364;2023-04-15T03:51:31;101663.00;;;7.22;78.73
79527;BME280;68974;47.754;-3.364;2023-04-15T03:53:56;101663.56;;;7.24;78.60
79527;BME280;68974;47.754;-3.364;2023-04-15T03:56:23;101666.19;;;7.19;78.87
79527;BME280;68974;47.754;-3.364;2023-04-15T03:58:48;101667.03;;;7.19;79.26
79527;BME280;68974;47.754;-3.364;2023-04-15T04:01:14;101676.75;;;7.15;78.89
79527;BME280;68974;47.754;-3.364;2023-04-15T04:03:39;101671.41;;;7.09;79.50
79527;BME280;68974;47.754;-3.364;2023-04-15T04:06:05;101679.72;;;7.14;78.71
79527;BME280;68974;47.754;-3.364;2023-04-15T04:08:30;101669.06;;;7.12;79.77
79527;BME280;68974;47.754;-3.364;2023-04-15T04:10:56;101669.53;;;7.21;79.00
79527;BME280;68974;47.754;-3.364;2023-04-15T04:13:22;101684.59;;;7.12;78.81
79527;BME280;68974;47.754;-3.364;2023-04-15T04:15:47;101684.47;;;7.07;79.50
79527;BME280;68974;47.754;-3.364;2023-04-15T04:18:12;101681.63;;;7.02;79.64
79527;BME280;68974;47.754;-3.364;2023-04-15T04:20:38;101679.84;;;7.07;79.45
79527;BME280;68974;47.754;-3.364;2023-04-15T04:23:03;101682.09;;;6.99;79.55
79527;BME280;68974;47.754;-3.364;2023-04-15T04:25:29;101686.03;;;7.03;80.55
79527;BME280;68974;47.754;-3.364;2023-04-15T04:27:54;101690.19;;;7.17;80.48
79527;BME280;68974;47.754;-3.364;2023-04-15T04:30:20;101681.13;;;7.05;80.12
79527;BME280;68974;47.754;-3.364;2023-04-15T04:32:45;101689.34;;;7.05;80.49
79527;BME280;68974;47.754;-3.364;2023-04-15T04:35:11;101691.63;;;7.08;80.42
79527;BME280;68974;47.754;-3.364;2023-04-15T04:37:36;101695.66;;;7.17;80.51
79527;BME280;68974;47.754;-3.364;2023-04-15T04:40:01;101698.53;;;7.22;80.59
79527;BME280;68974;47.754;-3.364;2023-04-15T04:42:27;101696.38;;;7.24;80.93
79527;BME280;68974;47.754;-3.364;2023-04-15T04:44:52;101706.13;;;7.31;80.21
79527;BME280;68974;47.754;-3.364;2023-04-15T04:47:18;101697.94;;;7.43;79.42
79527;BME280;68974;47.754;-3.364;2023-04-15T04:49:43;101701.63;;;7.49;80.14
79527;BME280;68974;47.754;-3.364;2023-04-15T04:52:09;101710.91;;;7.48;79.75
79527;BME280;68974;47.754;-3.364;2023-04-15T04:54:34;101716.97;;;7.50;79.62
79527;BME280;68974;47.754;-3.364;2023-04-15T04:57:00;101723.13;;;7.45;79.67
79527;BME280;68974;47.754;-3.364;2023-04-15T04:59:25;101724.06;;;7.39;80.19
79527;BME280;68974;47.754;-3.364;2023-04-15T05:01:51;101732.88;;;7.41;80.09
79527;BME280;68974;47.754;-3.364;2023-04-15T05:04:17;101734.19;;;7.50;79.63
79527;BME280;68974;47.754;-3.364;2023-04-15T05:06:42;101736.06;;;7.38;80.25
79527;BME280;68974;47.754;-3.364;2023-04-15T05:09:07;101749.28;;;7.41;80.73
79527;BME280;68974;47.754;-3.364;2023-04-15T05:11:33;101744.97;;;7.33;81.29
79527;BME280;68974;47.754;-3.364;2023-04-15T05:13:58;101750.00;;;7.36;80.74
79527;BME280;68974;47.754;-3.364;2023-04-15T05:16:25;101754.63;;;7.36;80.65
79527;BME280;68974;47.754;-3.364;2023-04-15T05:18:51;101757.94;;;7.38;80.66
79527;BME280;68974;47.754;-3.364;2023-04-15T05:21:17;101764.63;;;7.42;80.36
79527;BME280;68974;47.754;-3.364;2023-04-15T05:23:42;101769.72;;;7.38;80.83
79527;BME280;68974;47.754;-3.364;2023-04-15T05:26:07;101765.81;;;7.46;80.18
79527;BME280;68974;47.754;-3.364;2023-04-15T05:28:33;101776.63;;;7.41;80.22
79527;BME280;68974;47.754;-3.364;2023-04-15T05:30:59;101774.97;;;7.52;79.74
79527;BME280;68974;47.754;-3.364;2023-04-15T05:33:24;101776.16;;;7.44;80.29
79527;BME280;68974;47.754;-3.364;2023-04-15T05:35:50;101775.56;;;7.42;80.28
79527;BME280;68974;47.754;-3.364;2023-04-15T05:38:15;101776.84;;;7.39;80.59
79527;BME280;68974;47.754;-3.364;2023-04-15T05:40:41;101787.34;;;7.43;80.13
79527;BME280;68974;47.754;-3.364;2023-04-15T05:43:07;101792.31;;;7.46;80.36
79527;BME280;68974;47.754;-3.364;2023-04-15T05:45:32;101800.75;;;7.44;80.82
79527;BME280;68974;47.754;-3.364;2023-04-15T05:47:57;101801.47;;;7.51;79.98
79527;BME280;68974;47.754;-3.364;2023-04-15T05:50:23;101815.16;;;7.51;79.92
79527;BME280;68974;47.754;-3.364;2023-04-15T05:52:48;101812.56;;;7.68;79.74
79527;BME280;68974;47.754;-3.364;2023-04-15T05:55:13;101823.38;;;7.74;78.63
79527;BME280;68974;47.754;-3.364;2023-04-15T05:57:39;101825.38;;;7.67;79.05
79527;BME280;68974;47.754;-3.364;2023-04-15T06:00:05;101829.47;;;7.76;79.16
79527;BME280;68974;47.754;-3.364;2023-04-15T06:02:31;101832.66;;;7.73;79.21
79527;BME280;68974;47.754;-3.364;2023-04-15T06:04:56;101835.28;;;7.92;78.87
79527;BME280;68974;47.754;-3.364;2023-04-15T06:07:22;101835.78;;;7.89;78.72
79527;BME280;68974;47.754;-3.364;2023-04-15T06:09:48;101838.53;;;8.00;77.98
79527;BME280;68974;47.754;-3.364;2023-04-15T06:12:14;101849.81;;;8.04;78.45
79527;BME280;68974;47.754;-3.364;2023-04-15T06:14:39;101842.44;;;8.04;78.29
79527;BME280;68974;47.754;-3.364;2023-04-15T06:17:06;101843.16;;;8.00;78.19
79527;BME280;68974;47.754;-3.364;2023-04-15T06:19:32;101853.41;;;8.16;78.09
79527;BME280;68974;47.754;-3.364;2023-04-15T06:21:58;101850.78;;;8.33;77.01
79527;BME280;68974;47.754;-3.364;2023-04-15T06:24:24;101858.41;;;8.42;76.78
79527;BME280;68974;47.754;-3.364;2023-04-15T06:26:49;101868.28;;;8.55;76.81
79527;BME280;68974;47.754;-3.364;2023-04-15T06:29:15;101874.47;;;8.50;76.36
79527;BME280;68974;47.754;-3.364;2023-04-15T06:31:40;101872.22;;;8.59;76.37
79527;BME280;68974;47.754;-3.364;2023-04-15T06:34:06;101875.28;;;8.62;76.05
79527;BME280;68974;47.754;-3.364;2023-04-15T06:36:32;101881.81;;;8.73;75.67
79527;BME280;68974;47.754;-3.364;2023-04-15T06:38:57;101878.75;;;8.58;76.12
79527;BME280;68974;47.754;-3.364;2023-04-15T06:41:23;101881.72;;;8.56;76.32
79527;BME280;68974;47.754;-3.364;2023-04-15T06:43:48;101886.47;;;8.73;76.36
79527;BME280;68974;47.754;-3.364;2023-04-15T06:46:14;101883.50;;;8.74;75.48
79527;BME280;68974;47.754;-3.364;2023-04-15T06:48:39;101897.75;;;8.88;75.37
79527;BME280;68974;47.754;-3.364;2023-04-15T06:51:05;101897.75;;;8.88;75.37
79527;BME280;68974;47.754;-3.364;2023-04-15T06:53:30;101889.38;;;8.94;75.18
79527;BME280;68974;47.754;-3.364;2023-04-15T06:55:56;101894.94;;;9.11;74.35
79527;BME280;68974;47.754;-3.364;2023-04-15T06:58:21;101898.00;;;9.26;74.00
79527;BME280;68974;47.754;-3.364;2023-04-15T07:00:47;101895.06;;;9.16;74.33
79527;BME280;68974;47.754;-3.364;2023-04-15T07:03:13;101907.50;;;9.35;74.23
79527;BME280;68974;47.754;-3.364;2023-04-15T07:05:39;101912.47;;;9.38;73.63
79527;BME280;68974;47.754;-3.364;2023-04-15T07:08:05;101913.78;;;9.47;73.40
79527;BME280;68974;47.754;-3.364;2023-04-15T07:10:32;101908.19;;;9.42;73.57
79527;BME280;68974;47.754;-3.364;2023-04-15T07:12:57;101910.53;;;9.50;73.52
79527;BME280;68974;47.754;-3.364;2023-04-15T07:15:22;101909.75;;;9.67;73.69
79527;BME280;68974;47.754;-3.364;2023-04-15T07:17:48;101920.41;;;9.80;73.17
79527;BME280;68974;47.754;-3.364;2023-04-15T07:20:14;101934.13;;;9.80;73.13
79527;BME280;68974;47.754;-3.364;2023-04-15T07:22:39;101932.31;;;9.85;72.81
79527;BME280;68974;47.754;-3.364;2023-04-15T07:25:05;101942.53;;;9.90;72.96
79527;BME280;68974;47.754;-3.364;2023-04-15T07:27:31;101945.38;;;9.95;73.02
79527;BME280;68974;47.754;-3.364;2023-04-15T07:29:57;101941.81;;;10.11;72.80
79527;BME280;68974;47.754;-3.364;2023-04-15T07:32:22;101936.25;;;10.06;72.86
79527;BME280;68974;47.754;-3.364;2023-04-15T07:34:47;101944.06;;;10.14;72.68
79527;BME280;68974;47.754;-3.364;2023-04-15T07:37:13;101947.78;;;10.08;72.87
79527;BME280;68974;47.754;-3.364;2023-04-15T07:39:39;101948.06;;;10.23;72.45
79527;BME280;68974;47.754;-3.364;2023-04-15T07:42:04;101941.09;;;10.32;72.27
79527;BME280;68974;47.754;-3.364;2023-04-15T07:44:30;101952.63;;;10.51;72.19
79527;BME280;68974;47.754;-3.364;2023-04-15T07:46:56;101948.72;;;10.64;71.58
79527;BME280;68974;47.754;-3.364;2023-04-15T07:49:21;101956.53;;;10.72;71.11
79527;BME280;68974;47.754;-3.364;2023-04-15T07:51:47;101958.50;;;10.76;71.27
79527;BME280;68974;47.754;-3.364;2023-04-15T07:54:14;101962.97;;;10.99;70.97
79527;BME280;68974;47.754;-3.364;2023-04-15T07:56:39;101965.91;;;10.93;70.58
79527;BME280;68974;47.754;-3.364;2023-04-15T07:59:05;101973.22;;;11.25;69.61
79527;BME280;68974;47.754;-3.364;2023-04-15T08:01:31;101975.81;;;11.59;68.31
79527;BME280;68974;47.754;-3.364;2023-04-15T08:04:00;101969.69;;;12.00;66.66
79527;BME280;68974;47.754;-3.364;2023-04-15T08:06:25;101971.50;;;12.95;64.48
79527;BME280;68974;47.754;-3.364;2023-04-15T08:08:51;101976.84;;;13.79;60.42
79527;BME280;68974;47.754;-3.364;2023-04-15T08:11:18;101975.53;;;14.32;57.82
79527;BME280;68974;47.754;-3.364;2023-04-15T08:13:43;101982.19;;;14.16;58.29
79527;BME280;68974;47.754;-3.364;2023-04-15T08:16:17;101971.97;;;14.57;57.66
79527;BME280;68974;47.754;-3.364;2023-04-15T08:18:44;101969.28;;;15.37;55.38
79527;BME280;68974;47.754;-3.364;2023-04-15T08:21:10;101970.50;;;16.47;52.28
79527;BME280;68974;47.754;-3.364;2023-04-15T08:23:35;101962.16;;;17.53;49.41
79527;BME280;68974;47.754;-3.364;2023-04-15T08:26:01;101956.19;;;18.53;45.18
79527;BME280;68974;47.754;-3.364;2023-04-15T08:28:26;101967.69;;;17.77;47.05
79527;BME280;68974;47.754;-3.364;2023-04-15T08:30:52;101979.03;;;17.61;47.36
79527;BME280;68974;47.754;-3.364;2023-04-15T08:33:17;101973.31;;;17.05;48.18
79527;BME280;68974;47.754;-3.364;2023-04-15T08:35:43;101970.69;;;17.38;47.42
79527;BME280;68974;47.754;-3.364;2023-04-15T08:38:08;101986.56;;;17.56;46.17
79527;BME280;68974;47.754;-3.364;2023-04-15T08:40:42;101983.81;;;17.08;47.06
79527;BME280;68974;47.754;-3.364;2023-04-15T08:43:10;101988.53;;;17.31;47.30
79527;BME280;68974;47.754;-3.364;2023-04-15T08:45:38;101991.69;;;16.72;48.69
79527;BME280;68974;47.754;-3.364;2023-04-15T08:48:04;101997.41;;;17.10;47.77
79527;BME280;68974;47.754;-3.364;2023-04-15T08:50:31;102001.13;;;17.90;46.61
79527;BME280;68974;47.754;-3.364;2023-04-15T08:52:58;101997.81;;;18.26;45.13
79527;BME280;68974;47.754;-3.364;2023-04-15T08:55:28;102004.81;;;18.74;45.08
79527;BME280;68974;47.754;-3.364;2023-04-15T08:57:55;102002.94;;;18.00;45.40
79527;BME280;68974;47.754;-3.364;2023-04-15T09:00:21;102008.94;;;18.26;44.71
79527;BME280;68974;47.754;-3.364;2023-04-15T09:02:47;102004.88;;;18.37;43.93
79527;BME280;68974;47.754;-3.364;2023-04-15T09:05:13;102001.34;;;18.31;42.78
79527;BME280;68974;47.754;-3.364;2023-04-15T09:07:38;101994.63;;;18.83;41.33
79527;BME280;68974;47.754;-3.364;2023-04-15T09:10:04;102011.09;;;19.26;42.11
79527;BME280;68974;47.754;-3.364;2023-04-15T09:12:33;102007.16;;;19.27;39.86
79527;BME280;68974;47.754;-3.364;2023-04-15T09:14:59;102004.72;;;19.25;38.55
79527;BME280;68974;47.754;-3.364;2023-04-15T09:17:25;102017.66;;;19.02;38.49
79527;BME280;68974;47.754;-3.364;2023-04-15T09:20:08;102013.97;;;19.75;36.42
79527;BME280;68974;47.754;-3.364;2023-04-15T09:22:35;102023.09;;;20.17;35.28
79527;BME280;68974;47.754;-3.364;2023-04-15T09:25:01;102020.31;;;19.40;36.02
79527;BME280;68974;47.754;-3.364;2023-04-15T09:27:27;102036.25;;;19.21;37.12
79527;BME280;68974;47.754;-3.364;2023-04-15T09:29:52;102038.75;;;19.36;37.93
79527;BME280;68974;47.754;-3.364;2023-04-15T09:32:18;102043.50;;;18.38;38.58
79527;BME280;68974;47.754;-3.364;2023-04-15T09:34:45;102053.03;;;17.76;39.83
79527;BME280;68974;47.754;-3.364;2023-04-15T09:37:12;102052.91;;;18.24;39.48
79527;BME280;68974;47.754;-3.364;2023-04-15T09:39:48;102061.53;;;18.03;40.65
79527;BME280;68974;47.754;-3.364;2023-04-15T09:42:14;102057.13;;;17.84;40.11
79527;BME280;68974;47.754;-3.364;2023-04-15T09:44:41;102055.25;;;17.74;38.76
79527;BME280;68974;47.754;-3.364;2023-04-15T09:47:06;102066.78;;;17.39;40.18
79527;BME280;68974;47.754;-3.364;2023-04-15T09:49:31;102052.84;;;17.91;39.39
79527;BME280;68974;47.754;-3.364;2023-04-15T09:51:59;102062.41;;;17.80;38.18
79527;BME280;68974;47.754;-3.364;2023-04-15T09:54:32;102065.94;;;19.12;36.85
79527;BME280;68974;47.754;-3.364;2023-04-15T09:57:04;102056.38;;;20.00;35.86
79527;BME280;68974;47.754;-3.364;2023-04-15T09:59:29;102074.59;;;19.56;35.68
79527;BME280;68974;47.754;-3.364;2023-04-15T10:01:56;102072.28;;;18.47;37.52
79527;BME280;68974;47.754;-3.364;2023-04-15T10:04:22;102087.66;;;19.28;37.01
79527;BME280;68974;47.754;-3.364;2023-04-15T10:06:48;102078.53;;;18.95;35.35
79527;BME280;68974;47.754;-3.364;2023-04-15T10:09:13;102079.47;;;19.64;35.69
79527;BME280;68974;47.754;-3.364;2023-04-15T10:11:39;102077.19;;;19.94;34.95
79527;BME280;68974;47.754;-3.364;2023-04-15T10:14:06;102078.47;;;20.37;33.97
79527;BME280;68974;47.754;-3.364;2023-04-15T10:16:34;102083.81;;;18.41;36.82
79527;BME280;68974;47.754;-3.364;2023-04-15T10:19:02;102088.09;;;18.33;38.09
79527;BME280;68974;47.754;-3.364;2023-04-15T10:21:32;102094.19;;;18.16;38.43
79527;BME280;68974;47.754;-3.364;2023-04-15T10:23:57;102092.25;;;18.73;37.05
79527;BME280;68974;47.754;-3.364;2023-04-15T10:26:26;102089.34;;;19.43;36.23
79527;BME280;68974;47.754;-3.364;2023-04-15T10:28:52;102081.59;;;19.95;35.42
79527;BME280;68974;47.754;-3.364;2023-04-15T10:31:19;102091.94;;;19.53;34.82
79527;BME280;68974;47.754;-3.364;2023-04-15T10:33:45;102101.09;;;18.38;38.01
79527;BME280;68974;47.754;-3.364;2023-04-15T10:36:12;102097.78;;;17.98;39.91
79527;BME280;68974;47.754;-3.364;2023-04-15T10:38:42;102101.91;;;17.53;39.89
79527;BME280;68974;47.754;-3.364;2023-04-15T10:41:24;102104.50;;;16.87;40.52
79527;BME280;68974;47.754;-3.364;2023-04-15T10:43:59;102113.50;;;15.60;42.84
79527;BME280;68974;47.754;-3.364;2023-04-15T10:46:37;102114.28;;;16.35;43.16
79527;BME280;68974;47.754;-3.364;2023-04-15T10:49:26;102097.13;;;18.25;37.73
79527;BME280;68974;47.754;-3.364;2023-04-15T10:51:54;102097.31;;;19.63;34.77
79527;BME280;68974;47.754;-3.364;2023-04-15T10:57:36;102087.72;;;21.13;31.69
79527;BME280;68974;47.754;-3.364;2023-04-15T11:02:37;102096.38;;;21.25;30.26
79527;BME280;68974;47.754;-3.364;2023-04-15T11:05:04;102106.91;;;19.84;33.06
79527;BME280;68974;47.754;-3.364;2023-04-15T11:07:40;102116.25;;;17.65;36.60
79527;BME280;68974;47.754;-3.364;2023-04-15T11:12:37;102104.25;;;16.39;40.52
79527;BME280;68974;47.754;-3.364;2023-04-15T11:17:50;102100.63;;;19.93;33.40
79527;BME280;68974;47.754;-3.364;2023-04-15T11:20:16;102093.19;;;20.51;32.05
79527;BME280;68974;47.754;-3.364;2023-04-15T11:22:53;102091.53;;;20.50;31.45
79527;BME280;68974;47.754;-3.364;2023-04-15T11:25:26;102088.66;;;21.70;30.16
79527;BME280;68974;47.754;-3.364;2023-04-15T11:27:53;102086.34;;;22.12;28.53
79527;BME280;68974;47.754;-3.364;2023-04-15T11:30:20;102087.34;;;22.16;29.17
79527;BME280;68974;47.754;-3.364;2023-04-15T11:32:48;102088.97;;;21.07;29.18
79527;BME280;68974;47.754;-3.364;2023-04-15T11:35:13;102086.59;;;20.92;29.80
79527;BME280;68974;47.754;-3.364;2023-04-15T11:37:38;102082.75;;;22.28;28.38
79527;BME280;68974;47.754;-3.364;2023-04-15T11:40:05;102088.97;;;23.20;27.26
79527;BME280;68974;47.754;-3.364;2023-04-15T11:42:31;102090.94;;;21.99;28.77
79527;BME280;68974;47.754;-3.364;2023-04-15T11:45:15;102090.34;;;20.15;31.72
79527;BME280;68974;47.754;-3.364;2023-04-15T11:47:41;102095.44;;;20.00;32.61
79527;BME280;68974;47.754;-3.364;2023-04-15T11:50:16;102106.28;;;19.60;32.91
79527;BME280;68974;47.754;-3.364;2023-04-15T11:53:02;102111.16;;;19.82;32.52
79527;BME280;68974;47.754;-3.364;2023-04-15T11:55:29;102096.38;;;21.25;30.36
79527;BME280;68974;47.754;-3.364;2023-04-15T12:00:53;102096.94;;;23.01;27.75
79527;BME280;68974;47.754;-3.364;2023-04-15T12:03:27;102097.59;;;21.81;26.65
79527;BME280;68974;47.754;-3.364;2023-04-15T12:06:18;102111.19;;;20.45;30.30
79527;BME280;68974;47.754;-3.364;2023-04-15T12:11:16;102125.13;;;19.36;32.20
79527;BME280;68974;47.754;-3.364;2023-04-15T12:13:53;102121.16;;;19.10;32.66
79527;BME280;68974;47.754;-3.364;2023-04-15T12:16:19;102115.41;;;21.23;30.03
79527;BME280;68974;47.754;-3.364;2023-04-15T12:18:46;102103.22;;;22.72;27.08
79527;BME280;68974;47.754;-3.364;2023-04-15T12:21:12;102114.78;;;23.51;25.31
79527;BME280;68974;47.754;-3.364;2023-04-15T12:23:38;102111.25;;;22.99;24.13
79527;BME280;68974;47.754;-3.364;2023-04-15T12:26:04;102118.41;;;23.52;24.49
79527;BME280;68974;47.754;-3.364;2023-04-15T12:28:33;102116.44;;;23.44;24.04
79527;BME280;68974;47.754;-3.364;2023-04-15T12:31:00;102108.97;;;22.84;25.67
79527;BME280;68974;47.754;-3.364;2023-04-15T12:33:34;102116.34;;;22.63;26.69
79527;BME280;68974;47.754;-3.364;2023-04-15T12:35:59;102117.81;;;21.78;26.44
79527;BME280;68974;47.754;-3.364;2023-04-15T12:38:24;102116.94;;;21.99;27.38
79527;BME280;68974;47.754;-3.364;2023-04-15T12:40:50;102108.53;;;23.46;25.31
79527;BME280;68974;47.754;-3.364;2023-04-15T12:43:15;102126.50;;;22.07;27.39
79527;BME280;68974;47.754;-3.364;2023-04-15T12:45:41;102125.56;;;20.97;28.81
79527;BME280;68974;47.754;-3.364;2023-04-15T12:48:07;102134.53;;;19.40;30.91
79527;BME280;68974;47.754;-3.364;2023-04-15T12:50:34;102136.34;;;19.90;31.35
79527;BME280;68974;47.754;-3.364;2023-04-15T12:52:59;102129.28;;;21.59;28.15
79527;BME280;68974;47.754;-3.364;2023-04-15T12:55:25;102121.44;;;23.12;25.41
79527;BME280;68974;47.754;-3.364;2023-04-15T12:57:50;102119.09;;;23.49;24.23